Time;durP1;ratioP1;P1;durP2;ratioP2;P2;SDS_P1;SDS_P2;PMS_P1;PMS_P2;Temp;Humidity;BMP_temperature;BMP_pressure;BME280_temperature;BME280_humidity;BME280_pressure;Samples;Min_cycle;Max_cycle;Signal;HPM_P1;HPM_P2
2022/06/18 00:00:59;;;;;;;5.97;2.95;;;17.80;55.90;;;;;;4125770;28;20105;-82
2022/06/18 00:03:03;;;;;;;5.05;2.58;;;17.90;56.00;;;;;;4135189;28;20572;-84
2022/06/18 00:05:05;;;;;;;5.00;2.58;;;17.90;56.00;;;;;;4144623;28;21852;-82
2022/06/18 00:07:20;;;;;;;5.47;2.75;;;17.80;55.90;;;;;;4126807;28;20531;-84
2022/06/18 00:09:41;;;;;;;4.65;2.40;;;17.90;56.00;;;;;;4128414;28;20388;-83
2022/06/18 00:14:18;;;;;;;6.50;2.90;;;17.80;55.90;;;;;;4145552;28;20412;-82
2022/06/18 00:16:22;;;;;;;8.55;2.58;;;17.80;55.90;;;;;;4130138;28;20022;-83
2022/06/18 00:18:43;;;;;;;4.80;2.35;;;17.80;55.90;;;;;;4133553;28;20042;-83
2022/06/18 00:21:09;;;;;;;3.88;2.38;;;17.80;55.90;;;;;;4148684;28;20037;-83
2022/06/18 00:23:36;;;;;;;5.57;2.30;;;17.80;55.90;;;;;;4148383;28;20097;-82
2022/06/18 00:25:43;;;;;;;8.32;2.60;;;17.70;55.90;;;;;;4139978;28;20027;-83
2022/06/18 00:28:14;;;;;;;5.30;2.45;;;17.70;55.90;;;;;;4133809;28;20056;-83
2022/06/18 00:30:35;;;;;;;5.43;1.95;;;17.70;55.90;;;;;;4142084;28;20072;-83
2022/06/18 00:32:54;;;;;;;7.65;2.33;;;17.70;56.00;;;;;;4145533;28;20516;-82
2022/06/18 00:35:21;;;;;;;6.53;2.60;;;17.70;56.00;;;;;;4133816;28;20115;-83
2022/06/18 00:37:32;;;;;;;4.60;1.95;;;17.70;55.90;;;;;;4119494;28;20030;-82
2022/06/18 00:39:52;;;;;;;14.50;2.50;;;17.60;56.00;;;;;;4143752;28;20037;-83
2022/06/18 00:42:27;;;;;;;4.20;2.35;;;17.60;56.00;;;;;;4149506;28;20036;-83
2022/06/18 00:44:54;;;;;;;;;;;17.60;56.00;;;;;;4145326;28;20034;-82
2022/06/18 00:48:17;;;;;;;8.93;2.67;;;17.60;56.00;;;;;;4147010;28;19921;-82
2022/06/18 00:50:54;;;;;;;5.82;2.85;;;17.60;56.00;;;;;;4097932;28;20485;-83
2022/06/18 00:55:30;;;;;;;4.60;2.30;;;17.50;56.00;;;;;;4150432;23;20057;-82
2022/06/18 00:58:19;;;;;;;5.38;2.47;;;17.50;56.10;;;;;;4132626;28;20436;-83
2022/06/18 01:00:44;;;;;;;4.40;2.85;;;17.50;56.20;;;;;;4120490;28;20053;-83
2022/06/18 01:03:26;;;;;;;8.98;2.63;;;17.50;56.30;;;;;;4141188;28;22072;-82
2022/06/18 01:05:46;;;;;;;6.15;2.80;;;17.40;56.40;;;;;;4111161;28;20035;-82
2022/06/18 01:08:14;;;;;;;5.93;2.70;;;17.50;57.00;;;;;;4115155;28;20130;-82
2022/06/18 01:10:41;;;;;;;7.75;3.28;;;17.50;56.50;;;;;;4126410;28;20529;-83
2022/06/18 01:13:06;;;;;;;5.32;2.65;;;17.40;56.50;;;;;;4123954;28;20039;-82
2022/06/18 01:15:27;;;;;;;7.13;2.70;;;17.40;56.60;;;;;;4111655;28;20104;-82
2022/06/18 01:17:52;;;;;;;4.45;2.75;;;17.40;56.60;;;;;;4129663;28;20041;-83
2022/06/18 01:20:13;;;;;;;5.43;2.70;;;17.40;56.80;;;;;;4115950;28;20038;-83
2022/06/18 01:22:58;;;;;;;6.85;2.78;;;17.40;56.80;;;;;;4126624;28;20033;-82
2022/06/18 01:25:26;;;;;;;8.60;2.80;;;17.40;56.90;;;;;;4125264;28;20030;-83
2022/06/18 01:27:50;;;;;;;5.28;2.20;;;17.40;56.90;;;;;;4115456;28;20493;-82
2022/06/18 01:30:16;;;;;;;5.18;2.90;;;17.40;56.90;;;;;;4113380;28;20524;-83
2022/06/18 01:32:37;;;;;;;5.43;2.72;;;17.40;56.90;;;;;;4128993;28;20036;-82
2022/06/18 01:34:59;;;;;;;5.43;2.78;;;17.30;56.90;;;;;;4128957;28;20030;-82
2022/06/18 01:37:20;;;;;;;5.75;3.08;;;17.30;57.00;;;;;;4129584;28;22247;-83
2022/06/18 01:39:43;;;;;;;6.35;3.05;;;17.30;57.00;;;;;;4128494;28;20051;-82
2022/06/18 01:42:13;;;;;;;5.32;2.78;;;17.30;57.00;;;;;;4117242;28;20045;-83
2022/06/18 01:44:45;;;;;;;6.18;3.00;;;17.30;57.20;;;;;;4115415;28;20051;-83
2022/06/18 01:47:40;;;;;;;9.68;2.80;;;17.30;57.20;;;;;;4129244;28;20034;-83
2022/06/18 01:50:07;;;;;;;6.03;3.50;;;17.20;57.40;;;;;;4111312;28;20050;-82
2022/06/18 01:52:32;;;;;;;5.18;3.25;;;17.20;57.20;;;;;;4115071;28;20038;-83
2022/06/18 01:54:55;;;;;;;5.85;2.55;;;17.20;57.30;;;;;;4129979;28;20515;-82
2022/06/18 01:57:26;;;;;;;5.53;2.80;;;17.20;57.40;;;;;;4129606;28;20050;-83
2022/06/18 01:59:56;;;;;;;5.68;2.70;;;17.20;57.50;;;;;;4117586;28;20042;-83
2022/06/18 02:02:17;;;;;;;9.18;3.67;;;17.10;57.50;;;;;;4134272;28;20058;-83
2022/06/18 02:04:37;;;;;;;4.95;3.15;;;17.10;57.60;;;;;;4131760;28;20094;-84
2022/06/18 02:06:58;;;;;;;7.05;3.13;;;17.10;57.60;;;;;;4131662;28;20037;-83
2022/06/18 02:09:41;;;;;;;7.95;3.28;;;17.00;58.20;;;;;;4130987;28;20030;-83
2022/06/18 02:12:05;;;;;;;8.25;3.28;;;17.00;58.00;;;;;;4119287;28;20045;-82
2022/06/18 02:14:26;;;;;;;4.82;2.95;;;17.00;57.80;;;;;;4131728;28;20068;-83
2022/06/18 02:16:47;;;;;;;4.90;2.72;;;16.90;57.80;;;;;;4129528;28;20084;-82
2022/06/18 02:19:08;;;;;;;7.63;3.50;;;17.00;58.00;;;;;;4129862;28;20112;-83
2022/06/18 02:21:27;;;;;;;7.65;3.22;;;16.90;58.10;;;;;;4130146;28;20053;-82
2022/06/18 02:23:46;;;;;;;8.70;3.20;;;16.90;58.20;;;;;;4130704;28;20049;-83
2022/06/18 02:26:07;;;;;;;3.42;2.40;;;16.80;58.10;;;;;;4128010;28;20050;-82
2022/06/18 02:28:44;;;;;;;10.68;3.17;;;16.80;58.20;;;;;;4115205;28;20540;-83
2022/06/18 02:31:05;;;;;;;5.35;3.13;;;16.80;58.40;;;;;;4126857;28;20097;-83
2022/06/18 02:33:43;;;;;;;8.45;3.30;;;16.70;58.30;;;;;;4129147;28;20071;-82
2022/06/18 02:36:13;;;;;;;5.00;3.17;;;16.70;58.50;;;;;;4114921;28;20177;-82
2022/06/18 02:38:33;;;;;;;7.50;3.60;;;16.70;58.50;;;;;;4116503;28;20045;-83
2022/06/18 02:40:52;;;;;;;6.70;3.33;;;16.70;58.60;;;;;;4130581;28;20063;-82
2022/06/18 02:43:13;;;;;;;7.32;3.20;;;16.60;58.60;;;;;;4124697;28;20057;-83
2022/06/18 02:45:34;;;;;;;5.63;3.38;;;16.60;58.60;;;;;;4115866;28;20038;-83
2022/06/18 02:47:56;;;;;;;6.03;3.15;;;16.60;58.70;;;;;;4116307;28;20081;-82
2022/06/18 02:50:18;;;;;;;6.07;3.08;;;16.50;58.80;;;;;;4126295;28;20101;-82
2022/06/18 02:52:42;;;;;;;11.45;3.75;;;16.50;58.90;;;;;;4114691;28;20957;-84
2022/06/18 02:55:11;;;;;;;7.68;3.08;;;16.50;59.00;;;;;;4113913;28;20049;-82
2022/06/18 02:57:31;;;;;;;4.82;3.15;;;16.50;59.10;;;;;;4128613;28;20065;-83
2022/06/18 02:59:50;;;;;;;9.00;3.30;;;16.40;59.00;;;;;;4128192;28;20094;-82
2022/06/18 03:02:09;;;;;;;8.77;3.72;;;16.40;59.10;;;;;;4118215;28;20284;-83
2022/06/18 03:04:28;;;;;;;8.07;3.50;;;16.40;59.30;;;;;;4127722;28;20117;-83
2022/06/18 03:06:47;;;;;;;5.25;3.47;;;16.40;59.30;;;;;;4116756;28;20864;-82
2022/06/18 03:09:06;;;;;;;7.70;3.47;;;16.30;59.30;;;;;;4114930;28;20054;-83
2022/06/18 03:14:07;;;;;;;5.80;3.33;;;16.30;59.60;;;;;;4125773;28;20081;-83
2022/06/18 03:16:26;;;;;;;5.25;3.25;;;16.30;59.70;;;;;;4129151;28;20033;-83
2022/06/18 03:18:46;;;;;;;9.25;3.47;;;16.20;59.60;;;;;;4115072;28;20042;-83
2022/06/18 03:21:13;;;;;;;4.40;3.30;;;16.20;59.70;;;;;;4113619;28;20114;-83
2022/06/18 03:23:33;;;;;;;4.82;3.40;;;16.20;59.80;;;;;;4127198;28;20057;-83
2022/06/18 03:25:53;;;;;;;4.88;2.97;;;16.20;59.90;;;;;;4129595;28;20540;-83
2022/06/18 03:28:14;;;;;;;9.10;3.30;;;16.20;59.90;;;;;;4116710;28;20050;-83
2022/06/18 03:30:33;;;;;;;9.07;3.95;;;16.20;60.10;;;;;;4124811;28;20102;-84
2022/06/18 03:32:52;;;;;;;6.65;3.05;;;16.20;60.30;;;;;;4130161;28;20049;-83
2022/06/18 03:35:11;;;;;;;5.13;3.20;;;16.20;60.30;;;;;;4115255;28;20093;-82
2022/06/18 03:37:30;;;;;;;4.95;3.20;;;16.10;60.40;;;;;;4128435;28;20053;-83
2022/06/18 03:39:49;;;;;;;5.07;3.70;;;16.20;60.60;;;;;;4125761;28;20048;-83
2022/06/18 03:42:09;;;;;;;5.15;3.50;;;16.10;60.70;;;;;;4127740;28;20146;-82
2022/06/18 03:44:28;;;;;;;9.23;3.83;;;16.10;60.70;;;;;;4128974;28;20056;-83
2022/06/18 03:46:47;;;;;;;5.82;3.50;;;16.10;60.80;;;;;;4130195;28;20045;-83
2022/06/18 03:49:07;;;;;;;6.82;3.42;;;16.20;61.00;;;;;;4125227;28;20092;-83
2022/06/18 03:51:27;;;;;;;5.03;3.47;;;16.10;61.00;;;;;;4109239;28;20045;-83
2022/06/18 03:53:47;;;;;;;9.63;3.60;;;16.20;61.30;;;;;;4114477;28;20512;-82
2022/06/18 03:56:10;;;;;;;7.65;3.17;;;16.10;62.10;;;;;;4130548;28;20508;-83
2022/06/18 03:58:30;;;;;;;6.90;3.58;;;16.20;61.50;;;;;;4127624;28;20053;-83
2022/06/18 04:00:50;;;;;;;5.88;3.58;;;16.20;61.60;;;;;;4123073;28;20034;-83
2022/06/18 04:03:09;;;;;;;4.88;3.58;;;16.20;61.80;;;;;;4127169;28;20053;-83
2022/06/18 04:05:32;;;;;;;4.53;2.83;;;16.20;61.90;;;;;;4129982;28;20044;-83
2022/06/18 04:07:51;;;;;;;11.90;3.50;;;16.20;62.10;;;;;;4134553;28;20679;-83
2022/06/18 04:10:18;;;;;;;9.07;3.40;;;16.30;62.20;;;;;;4115502;28;20093;-83
2022/06/18 04:12:37;;;;;;;6.68;3.70;;;16.30;62.50;;;;;;4125159;28;20464;-83
2022/06/18 04:14:56;;;;;;;8.23;3.70;;;16.30;62.50;;;;;;4127551;28;20118;-83
2022/06/18 04:17:16;;;;;;;6.90;3.75;;;16.30;62.60;;;;;;4127889;28;20109;-83
2022/06/18 04:19:35;;;;;;;6.70;3.83;;;16.30;62.60;;;;;;4113507;28;20058;-82
2022/06/18 04:21:55;;;;;;;6.55;3.65;;;16.30;62.80;;;;;;4126967;28;20425;-84
2022/06/18 04:24:14;;;;;;;10.80;3.83;;;16.40;62.90;;;;;;4129331;28;20061;-83
2022/06/18 04:26:33;;;;;;;5.03;3.38;;;16.40;63.10;;;;;;4130026;28;20045;-83
2022/06/18 04:28:54;;;;;;;6.18;3.90;;;16.50;63.30;;;;;;4129597;28;20065;-82
2022/06/18 04:31:13;;;;;;;6.85;4.30;;;16.50;63.30;;;;;;4119477;28;20080;-84
2022/06/18 04:33:32;;;;;;;7.20;3.88;;;16.50;63.50;;;;;;4127009;28;20100;-83
2022/06/18 04:35:54;;;;;;;7.75;4.35;;;16.50;63.60;;;;;;4129391;28;20061;-84
2022/06/18 04:38:13;;;;;;;10.32;4.32;;;16.60;63.80;;;;;;4131289;28;20089;-84
2022/06/18 04:40:33;;;;;;;11.10;4.10;;;16.60;63.90;;;;;;4130941;28;20554;-83
2022/06/18 04:42:53;;;;;;;9.13;4.03;;;16.60;64.10;;;;;;4126789;28;20107;-83
2022/06/18 04:45:13;;;;;;;5.45;3.38;;;16.60;64.10;;;;;;4128606;28;20061;-82
2022/06/18 04:47:32;;;;;;;9.13;4.10;;;16.60;64.30;;;;;;4130471;28;20061;-83
2022/06/18 04:49:52;;;;;;;8.00;4.43;;;16.70;64.60;;;;;;4118435;28;20067;-84
2022/06/18 04:52:11;;;;;;;10.35;4.20;;;16.70;64.70;;;;;;4114858;28;20081;-83
2022/06/18 04:54:31;;;;;;;10.43;4.30;;;16.70;64.90;;;;;;4128262;28;20048;-83
2022/06/18 04:56:50;;;;;;;8.30;4.60;;;16.80;65.20;;;;;;4129062;28;20750;-83
2022/06/18 04:59:10;;;;;;;10.15;4.57;;;16.80;65.30;;;;;;4131367;28;20136;-82
2022/06/18 05:01:30;;;;;;;12.35;4.60;;;16.90;65.40;;;;;;4115880;28;20041;-83
2022/06/18 05:03:50;;;;;;;9.48;4.20;;;16.90;65.50;;;;;;4130374;28;20066;-82
2022/06/18 05:06:10;;;;;;;14.13;4.40;;;16.90;65.50;;;;;;4127978;28;20668;-83
2022/06/18 05:08:29;;;;;;;8.15;4.70;;;17.00;65.70;;;;;;4134470;28;20076;-83
2022/06/18 05:10:48;;;;;;;8.02;4.45;;;17.00;65.80;;;;;;4130702;28;20057;-82
2022/06/18 05:13:08;;;;;;;9.15;4.55;;;17.00;66.00;;;;;;4127652;28;20054;-83
2022/06/18 05:15:27;;;;;;;10.80;4.95;;;17.10;66.20;;;;;;4120003;28;20066;-84
2022/06/18 05:17:47;;;;;;;11.27;4.72;;;17.10;66.50;;;;;;4133647;28;20074;-83
2022/06/18 05:20:10;;;;;;;10.73;5.03;;;17.10;66.70;;;;;;4135890;28;20037;-83
2022/06/18 05:22:29;;;;;;;12.18;5.00;;;17.20;66.60;;;;;;4117028;28;20094;-83
2022/06/18 05:24:48;;;;;;;10.63;5.53;;;17.30;66.80;;;;;;4130947;28;20041;-82
2022/06/18 05:27:21;;;;;;;17.17;5.35;;;17.30;67.60;;;;;;4128684;28;20082;-83
2022/06/18 05:29:43;;;;;;;14.05;5.50;;;17.40;67.10;;;;;;4133903;28;20042;-84
2022/06/18 05:32:03;;;;;;;11.48;5.70;;;17.40;67.40;;;;;;4121677;28;20045;-83
2022/06/18 05:34:23;;;;;;;14.73;5.13;;;17.50;67.50;;;;;;4131697;28;20050;-83
2022/06/18 05:36:42;;;;;;;12.25;5.75;;;17.50;67.30;;;;;;4133348;28;20037;-82
2022/06/18 05:39:02;;;;;;;10.43;5.50;;;17.60;67.20;;;;;;4117419;28;20069;-82
2022/06/18 05:41:22;;;;;;;12.27;5.47;;;17.70;67.30;;;;;;4120668;28;20049;-83
2022/06/18 05:43:41;;;;;;;9.98;5.47;;;17.70;67.20;;;;;;4135213;28;20037;-83
2022/06/18 05:46:01;;;;;;;12.05;5.93;;;17.80;67.30;;;;;;4118014;28;20116;-83
2022/06/18 05:48:20;;;;;;;10.68;5.63;;;17.80;67.10;;;;;;4135321;28;20065;-83
2022/06/18 05:50:40;;;;;;;16.15;5.30;;;17.90;67.00;;;;;;4113848;28;20134;-83
2022/06/18 05:52:59;;;;;;;13.35;5.03;;;17.90;67.00;;;;;;4131152;28;20048;-83
2022/06/18 05:55:20;;;;;;;14.15;5.22;;;17.90;66.70;;;;;;4130167;28;20041;-82
2022/06/18 05:57:51;;;;;;;12.27;5.55;;;18.00;66.60;;;;;;4120836;28;20057;-84
2022/06/18 06:00:13;;;;;;;12.40;5.15;;;18.00;66.60;;;;;;4133080;28;20233;-83
2022/06/18 06:02:33;;;;;;;14.38;5.38;;;18.10;67.30;;;;;;4114000;28;20100;-83
2022/06/18 06:04:52;;;;;;;13.25;5.50;;;18.10;66.50;;;;;;4133373;28;20096;-84
2022/06/18 06:07:16;;;;;;;7.82;4.65;;;18.10;66.50;;;;;;4134247;28;20094;-82
2022/06/18 06:12:14;;;;;;;12.93;5.18;;;18.20;66.40;;;;;;4125602;28;20468;-84
2022/06/18 06:14:33;;;;;;;12.45;4.97;;;18.30;66.30;;;;;;4118480;28;20041;-83
2022/06/18 06:16:52;;;;;;;14.32;5.00;;;18.30;66.00;;;;;;4128432;28;20037;-84
2022/06/18 06:19:11;;;;;;;13.45;5.82;;;18.30;65.70;;;;;;4123471;28;20045;-83
2022/06/18 06:21:31;;;;;;;11.07;4.40;;;18.30;65.30;;;;;;4127484;28;20304;-83
2022/06/18 06:23:50;;;;;;;14.15;4.53;;;18.40;65.00;;;;;;4124358;28;20092;-84
2022/06/18 06:26:20;;;;;;;14.07;5.50;;;18.40;64.80;;;;;;4119116;28;20148;-83
2022/06/18 06:28:43;;;;;;;11.85;4.63;;;18.40;64.60;;;;;;4123956;28;20408;-84
2022/06/18 06:31:02;;;;;;;16.27;5.55;;;18.50;64.50;;;;;;4108403;28;20090;-84
2022/06/18 06:33:24;;;;;;;14.60;5.07;;;18.50;64.40;;;;;;4109854;28;20061;-84
2022/06/18 06:35:43;;;;;;;18.15;4.80;;;18.50;64.20;;;;;;4126104;28;20041;-83
2022/06/18 06:38:03;;;;;;;15.77;4.90;;;18.60;65.00;;;;;;4115069;28;20086;-83
2022/06/18 06:40:24;;;;;;;9.88;5.10;;;18.60;64.10;;;;;;4108068;28;20611;-83
2022/06/18 06:42:47;;;;;;;13.55;5.38;;;18.60;64.10;;;;;;4112975;28;20106;-84
2022/06/18 06:45:11;;;;;;;10.68;5.57;;;18.60;64.10;;;;;;4122480;28;20046;-85
2022/06/18 06:47:30;;;;;;;9.93;5.38;;;18.60;63.90;;;;;;4123664;28;20695;-83
2022/06/18 06:49:49;;;;;;;14.45;4.97;;;18.60;63.80;;;;;;4106210;28;20058;-84
2022/06/18 06:52:12;;;;;;;12.50;4.80;;;18.70;64.00;;;;;;4107151;28;20138;-85
2022/06/18 06:54:32;;;;;;;9.15;4.68;;;18.70;64.20;;;;;;4118487;28;20124;-83
2022/06/18 06:59:29;;;;;;;14.32;4.28;;;18.80;64.80;;;;;;4123299;28;20069;-83
2022/06/18 07:01:48;;;;;;;16.15;4.38;;;18.80;64.70;;;;;;4117385;28;20575;-84
2022/06/18 07:04:12;;;;;;;9.15;4.28;;;18.90;64.80;;;;;;4121443;28;20065;-84
2022/06/18 07:06:42;;;;;;;9.80;3.65;;;19.00;64.80;;;;;;4113413;28;20049;-86
2022/06/18 07:09:06;;;;;;;16.42;3.80;;;19.00;64.90;;;;;;4138360;28;20077;-83
2022/06/18 07:11:25;;;;;;;11.93;4.55;;;19.10;64.90;;;;;;4138202;28;20207;-83
2022/06/18 07:13:47;;;;;;;8.07;3.80;;;19.20;64.90;;;;;;4143873;28;20037;-83
2022/06/18 07:16:14;;;;;;;10.65;4.10;;;19.30;64.90;;;;;;4136084;28;20033;-83
2022/06/18 07:18:35;;;;;;;9.57;3.45;;;19.30;64.60;;;;;;4137108;28;20130;-83
2022/06/18 07:20:54;;;;;;;9.27;3.20;;;19.40;64.50;;;;;;4124796;28;20408;-83
2022/06/18 07:23:14;;;;;;;18.70;3.55;;;19.50;64.40;;;;;;4136871;28;20115;-84
2022/06/18 07:25:33;;;;;;;15.43;4.32;;;19.60;64.50;;;;;;4134599;28;22056;-83
2022/06/18 07:28:04;;;;;;;8.88;3.10;;;19.60;64.10;;;;;;4133347;28;20061;-85
2022/06/18 07:30:48;;;;;;;6.10;2.47;;;19.70;63.90;;;;;;4124608;28;20041;-84
2022/06/18 07:33:13;;;;;;;12.20;3.25;;;19.80;63.90;;;;;;4121306;28;20471;-84
2022/06/18 07:35:49;;;;;;;7.30;3.00;;;19.90;63.50;;;;;;4121530;28;20053;-84
2022/06/18 07:38:08;;;;;;;9.65;2.63;;;19.90;63.00;;;;;;4133788;28;20189;-83
2022/06/18 07:40:47;;;;;;;7.15;3.13;;;20.00;63.50;;;;;;4120621;28;20030;-83
2022/06/18 07:43:14;;;;;;;12.32;2.47;;;20.10;62.40;;;;;;4134017;28;20052;-82
2022/06/18 07:45:35;;;;;;;6.22;2.17;;;20.10;62.00;;;;;;4124466;28;20094;-81
2022/06/18 07:47:54;;;;;;;7.97;2.42;;;20.20;61.90;;;;;;4124110;28;20130;-83
2022/06/18 07:50:28;;;;;;;11.60;2.30;;;20.20;61.90;;;;;;4140501;28;20151;-83
2022/06/18 07:52:48;;;;;;;7.25;2.13;;;20.30;61.50;;;;;;4121784;28;20150;-82
2022/06/18 07:55:16;;;;;;;6.22;2.05;;;20.30;60.90;;;;;;4134640;28;20143;-84
2022/06/18 07:57:36;;;;;;;10.23;2.33;;;20.50;60.80;;;;;;4137199;28;20075;-83
2022/06/18 07:59:55;;;;;;;9.82;2.60;;;20.50;60.80;;;;;;4130138;28;20045;-82
2022/06/18 08:02:16;;;;;;;7.50;2.05;;;20.50;60.20;;;;;;4117293;28;20114;-82
2022/06/18 08:04:35;;;;;;;7.00;2.30;;;20.60;59.80;;;;;;4129372;28;20048;-82
2022/06/18 08:06:35;;;;;;;6.13;1.90;;;20.60;59.80;;;;;;4135542;28;20037;-83
2022/06/18 08:08:38;;;;;;;7.63;1.88;;;20.70;59.70;;;;;;4138051;28;20143;-82
2022/06/18 08:10:50;;;;;;;7.10;2.13;;;20.70;59.30;;;;;;4119458;28;20182;-83
2022/06/18 08:13:04;;;;;;;9.65;1.73;;;20.80;59.30;;;;;;4118607;28;20039;-83
2022/06/18 08:15:06;;;;;;;12.00;1.90;;;20.80;59.40;;;;;;4157815;23;20038;-83
2022/06/18 08:17:07;;;;;;;9.52;2.00;;;20.80;59.60;;;;;;4138626;28;20030;-83
2022/06/18 08:19:13;;;;;;;4.95;1.45;;;20.90;59.10;;;;;;4148235;28;20037;-83
2022/06/18 08:21:21;;;;;;;5.90;1.40;;;20.90;58.70;;;;;;4127747;28;20019;-85
2022/06/18 08:23:24;;;;;;;6.13;1.63;;;21.00;58.20;;;;;;4133229;28;20133;-83
2022/06/18 08:25:27;;;;;;;6.00;1.42;;;21.00;58.00;;;;;;4133871;28;20080;-84
2022/06/18 08:27:31;;;;;;;;;;;21.00;57.80;;;;;;4131822;28;20034;-84
2022/06/18 08:29:34;;;;;;;6.78;1.40;;;21.00;57.50;;;;;;4105893;28;19997;-85
2022/06/18 08:31:41;;;;;;;5.47;1.58;;;21.00;57.10;;;;;;4117899;28;20042;-86
2022/06/18 08:33:42;;;;;;;6.07;1.15;;;21.00;56.80;;;;;;4139314;28;20095;-83
2022/06/18 08:35:43;;;;;;;6.85;1.25;;;21.10;56.70;;;;;;4122367;28;20147;-84
2022/06/18 08:37:44;;;;;;;5.60;1.23;;;21.00;56.10;;;;;;4137407;28;20611;-83
2022/06/18 08:39:46;;;;;;;6.18;1.30;;;21.10;56.40;;;;;;4122745;28;20027;-84
2022/06/18 08:42:03;;;;;;;3.03;1.00;;;21.10;55.80;;;;;;4142117;28;20029;-84
2022/06/18 08:44:37;;;;;;;3.92;1.10;;;21.10;55.70;;;;;;4126453;28;20248;-85
2022/06/18 08:46:55;;;;;;;3.55;1.35;;;21.10;55.70;;;;;;4135981;28;20099;-85
2022/06/18 08:49:05;;;;;;;2.40;0.90;;;21.10;55.80;;;;;;4137187;28;20578;-86
2022/06/18 08:51:41;;;;;;;2.17;0.80;;;21.20;56.10;;;;;;4140418;28;20041;-85
2022/06/18 08:53:58;;;;;;;5.65;0.90;;;21.20;55.50;;;;;;4119477;28;20042;-85
2022/06/18 08:56:14;;;;;;;3.25;1.10;;;21.20;55.40;;;;;;4107427;28;20800;-86
2022/06/18 08:58:26;;;;;;;6.75;1.00;;;21.20;55.30;;;;;;4105962;28;20066;-86
2022/06/18 09:00:51;;;;;;;4.30;0.90;;;21.20;55.40;;;;;;4139064;28;20597;-85
2022/06/18 09:03:08;;;;;;;5.15;1.00;;;21.20;55.40;;;;;;4140808;28;20022;-86
2022/06/18 09:05:15;;;;;;;6.25;0.90;;;21.30;55.30;;;;;;4124867;28;20034;-85
2022/06/18 09:07:37;;;;;;;3.20;0.90;;;21.20;54.90;;;;;;4140784;28;20038;-85
2022/06/18 09:09:48;;;;;;;1.98;0.88;;;21.20;54.90;;;;;;4141955;28;20655;-85
2022/06/18 09:12:10;;;;;;;2.90;0.90;;;21.20;55.20;;;;;;4105975;28;20024;-84
2022/06/18 09:14:36;;;;;;;3.03;0.80;;;21.20;54.90;;;;;;4120904;28;20456;-86
2022/06/18 09:16:43;;;;;;;3.60;0.65;;;21.30;55.00;;;;;;4135680;28;20423;-84
2022/06/18 09:18:55;;;;;;;2.72;0.60;;;21.30;55.40;;;;;;4119896;28;20488;-84
2022/06/18 09:21:00;;;;;;;1.45;0.70;;;21.40;54.70;;;;;;4141817;28;20038;-86
2022/06/18 09:23:43;;;;;;;4.88;0.55;;;21.40;53.90;;;;;;4137844;28;20038;-85
2022/06/18 09:25:48;;;;;;;2.42;0.70;;;21.40;53.70;;;;;;4073939;29;20111;-84
2022/06/18 09:28:06;;;;;;;3.28;0.65;;;21.40;53.40;;;;;;4072900;29;20114;-85
2022/06/18 09:30:42;;;;;;;3.90;0.80;;;21.50;53.30;;;;;;4076083;29;20040;-86
2022/06/18 09:32:48;;;;;;;1.85;0.70;;;21.50;52.90;;;;;;4069892;29;20059;-86
2022/06/18 09:35:01;;;;;;;4.63;0.85;;;21.50;53.50;;;;;;4091887;28;20031;-85
2022/06/18 09:37:38;;;;;;;2.77;0.60;;;21.50;53.30;;;;;;4074348;29;20549;-84
2022/06/18 09:39:44;;;;;;;0.88;0.38;;;21.50;52.60;;;;;;4089837;28;20058;-85
2022/06/18 09:42:19;;;;;;;4.40;0.40;;;21.50;52.50;;;;;;4090340;28;20035;-85
2022/06/18 09:44:37;;;;;;;1.63;0.50;;;21.50;52.40;;;;;;4090450;28;20504;-85
2022/06/18 09:46:43;;;;;;;1.98;0.47;;;21.50;53.00;;;;;;4093246;28;20042;-85
2022/06/18 09:48:43;;;;;;;1.85;0.52;;;21.50;52.70;;;;;;4080183;29;20031;-85
2022/06/18 09:51:01;;;;;;;1.70;0.55;;;21.50;52.60;;;;;;4077765;29;20592;-85
2022/06/18 09:53:26;;;;;;;0.98;0.50;;;21.50;52.40;;;;;;4072875;29;21920;-85
2022/06/18 09:55:37;;;;;;;5.75;0.60;;;21.50;52.20;;;;;;4075025;29;20032;-84
2022/06/18 09:57:44;;;;;;;2.55;0.63;;;21.50;52.40;;;;;;4092485;28;20048;-85
2022/06/18 10:00:04;;;;;;;6.60;0.85;;;21.50;51.70;;;;;;4076927;29;20127;-85
2022/06/18 10:02:36;;;;;;;1.88;0.70;;;21.50;51.80;;;;;;4087690;28;20563;-85
2022/06/18 10:07:00;;;;;;;5.30;0.45;;;21.50;52.00;;;;;;4041815;29;20036;-83
2022/06/18 10:09:04;;;;;;;3.28;0.70;;;21.50;51.50;;;;;;4044271;29;20044;-85
2022/06/18 10:11:09;;;;;;;1.65;0.50;;;21.50;51.70;;;;;;4018293;29;20150;-84
2022/06/18 10:13:15;;;;;;;3.22;0.70;;;21.50;52.20;;;;;;4028414;29;20070;-85
2022/06/18 10:15:21;;;;;;;3.38;0.85;;;21.50;52.20;;;;;;4042784;29;20056;-84
2022/06/18 10:17:55;;;;;;;5.18;0.80;;;21.60;52.30;;;;;;4042601;29;20032;-85
2022/06/18 10:20:33;;;;;;;2.97;0.68;;;21.60;52.60;;;;;;4041823;29;20035;-84
2022/06/18 10:22:51;;;;;;;2.40;0.85;;;21.70;52.30;;;;;;4040984;29;20411;-84
2022/06/18 10:25:07;;;;;;;3.17;0.90;;;21.70;52.20;;;;;;4042767;29;20032;-83
2022/06/18 10:27:35;;;;;;;4.18;0.98;;;21.80;52.40;;;;;;4043366;29;20036;-86
2022/06/18 10:29:54;;;;;;;0.93;0.70;;;21.70;51.40;;;;;;4049032;29;20037;-85
2022/06/18 10:32:33;;;;;;;3.08;0.65;;;21.70;51.40;;;;;;4049396;29;20113;-85
2022/06/18 10:35:00;;;;;;;2.58;0.70;;;21.70;51.40;;;;;;4040354;29;20512;-84
2022/06/18 10:37:30;;;;;;;2.75;0.73;;;21.80;51.20;;;;;;4039636;29;20310;-84
2022/06/18 10:45:47;;;;;;;4.85;0.77;;;21.80;49.80;;;;;;4163940;23;20068;-83
2022/06/18 10:47:52;;;;;;;2.80;0.65;;;21.70;49.80;;;;;;4150594;28;20044;-83
2022/06/18 10:50:01;;;;;;;4.25;1.33;;;21.70;49.40;;;;;;4132616;28;20034;-82
2022/06/18 10:52:03;;;;;;;5.00;1.10;;;21.70;49.90;;;;;;4116720;28;20038;-83
2022/06/18 10:54:05;;;;;;;2.83;0.82;;;21.70;50.20;;;;;;4134778;28;20029;-84
2022/06/18 10:56:15;;;;;;;5.87;0.87;;;21.70;50.40;;;;;;4134485;28;20298;-84
2022/06/18 10:58:16;;;;;;;2.38;0.85;;;21.80;49.90;;;;;;4130852;28;20116;-85
2022/06/18 11:00:25;;;;;;;3.08;0.70;;;21.80;49.30;;;;;;4132132;28;20061;-84
2022/06/18 11:02:34;;;;;;;6.78;1.10;;;21.90;49.50;;;;;;4131206;28;20565;-85
2022/06/18 11:04:36;;;;;;;5.97;0.90;;;21.90;49.60;;;;;;4122471;28;20239;-84
2022/06/18 11:06:48;;;;;;;8.07;0.90;;;21.90;48.70;;;;;;4101457;28;20035;-84
2022/06/18 11:08:52;;;;;;;5.95;0.82;;;21.90;47.40;;;;;;4130199;28;20509;-83
2022/06/18 11:11:04;;;;;;;6.95;1.00;;;21.90;47.10;;;;;;4125026;28;20042;-84
2022/06/18 11:13:20;;;;;;;4.20;0.93;;;22.00;47.00;;;;;;4124708;28;20045;-83
2022/06/18 11:15:31;;;;;;;6.47;1.38;;;22.00;46.30;;;;;;4121967;28;20026;-82
2022/06/18 11:17:41;;;;;;;4.97;0.82;;;21.90;45.40;;;;;;4113862;28;20048;-82
2022/06/18 11:19:48;;;;;;;3.42;0.82;;;21.90;45.10;;;;;;4110210;28;20022;-83
2022/06/18 11:21:50;;;;;;;4.18;0.90;;;22.00;45.50;;;;;;4115430;28;20038;-85
2022/06/18 11:24:05;;;;;;;5.00;1.10;;;22.00;45.80;;;;;;4107854;28;20166;-84
2022/06/18 11:26:10;;;;;;;1.65;0.70;;;22.00;45.50;;;;;;4130656;28;20064;-84
2022/06/18 11:28:20;;;;;;;2.50;0.63;;;22.00;45.60;;;;;;4127509;28;20030;-83
2022/06/18 11:30:26;;;;;;;6.63;1.58;;;22.10;45.90;;;;;;4115968;28;20041;-83
2022/06/18 11:32:41;;;;;;;6.65;0.90;;;22.10;45.60;;;;;;4127630;28;20037;-83
2022/06/18 11:34:49;;;;;;;5.10;1.13;;;22.10;45.50;;;;;;4122189;28;20038;-83
2022/06/18 11:36:54;;;;;;;4.13;1.20;;;22.10;45.20;;;;;;4107298;28;20168;-83
2022/06/18 11:38:58;;;;;;;5.30;1.00;;;22.10;44.80;;;;;;4110756;28;20035;-84
2022/06/18 11:41:15;;;;;;;5.22;1.20;;;22.10;44.30;;;;;;4109266;28;20031;-83
2022/06/18 11:43:37;;;;;;;3.17;0.80;;;22.20;43.00;;;;;;4128581;28;20022;-83
2022/06/18 11:46:00;;;;;;;4.70;0.90;;;22.10;42.60;;;;;;4114931;28;20041;-82
2022/06/18 11:48:25;;;;;;;5.20;1.20;;;22.10;42.70;;;;;;4128508;28;20379;-83
2022/06/18 11:50:48;;;;;;;4.72;0.63;;;22.20;43.20;;;;;;4112751;28;20133;-84
2022/06/18 11:53:11;;;;;;;7.13;1.10;;;22.10;44.10;;;;;;4132329;28;20026;-83
2022/06/18 11:55:32;;;;;;;10.35;0.88;;;22.10;44.80;;;;;;4090773;28;20045;-84
2022/06/18 11:57:56;;;;;;;7.13;1.05;;;22.20;44.40;;;;;;4102280;28;20108;-83
2022/06/18 12:00:15;;;;;;;7.45;1.17;;;22.20;43.90;;;;;;4112727;28;20077;-83
2022/06/18 12:02:32;;;;;;;11.05;1.23;;;22.20;43.50;;;;;;4121644;28;20525;-83
2022/06/18 12:05:04;;;;;;;6.63;1.60;;;22.20;43.50;;;;;;4108003;28;20737;-83
2022/06/18 12:07:36;;;;;;;7.07;1.33;;;22.20;42.80;;;;;;4131702;28;20122;-82
2022/06/18 12:09:38;;;;;;;10.90;1.50;;;22.10;42.10;;;;;;4102049;28;20046;-83
2022/06/18 12:12:03;;;;;;;6.03;1.40;;;22.10;41.90;;;;;;4121611;28;20044;-84
2022/06/18 12:14:16;;;;;;;10.63;1.60;;;22.10;41.20;;;;;;4125221;28;20026;-82
2022/06/18 12:16:26;;;;;;;6.18;1.30;;;22.00;41.80;;;;;;4129834;28;20516;-83
2022/06/18 12:18:36;;;;;;;9.27;1.77;;;22.00;41.90;;;;;;4107748;28;20042;-82
2022/06/18 12:20:57;;;;;;;9.15;1.20;;;22.00;42.90;;;;;;4123766;28;20034;-83
2022/06/18 12:23:06;;;;;;;8.35;1.55;;;21.90;43.40;;;;;;4125702;28;20489;-83
2022/06/18 12:25:40;;;;;;;8.43;1.40;;;21.90;44.30;;;;;;4128410;28;20038;-83